createdAt,value
2018-09-19T00:00:25.294Z,63.73
2018-09-19T00:01:25.143Z,64.01
2018-09-19T00:02:25.197Z,63.24
2018-09-19T00:03:25.197Z,63.73
2018-09-19T00:04:25.222Z,63.92
2018-09-19T00:05:25.259Z,64.01
2018-09-19T00:06:25.273Z,63.89
2018-09-19T00:07:25.302Z,63.89
2018-09-19T00:08:25.330Z,64.37
2018-09-19T00:09:25.358Z,64.18
2018-09-19T00:10:25.375Z,64.08
2018-09-19T00:11:25.395Z,64.27
2018-09-19T00:12:25.417Z,64.27
2018-09-19T00:13:25.448Z,64.21
2018-09-19T00:14:25.476Z,64.21
2018-09-19T00:15:25.512Z,64.01
2018-09-19T00:16:25.522Z,64.01
2018-09-19T00:17:25.568Z,63.82
2018-09-19T00:18:25.578Z,63.63
2018-09-19T00:19:25.603Z,63.89
2018-09-19T00:20:25.630Z,63.82
2018-09-19T00:21:25.644Z,63.82
2018-09-19T00:22:25.739Z,63.53
2018-09-19T00:23:25.698Z,63.73
2018-09-19T00:24:25.828Z,63.89
2018-09-19T00:25:25.771Z,63.53
2018-09-19T00:26:25.775Z,63.73
2018-09-19T00:27:25.803Z,64.01
2018-09-19T00:28:25.822Z,63.82
2018-09-19T00:29:25.852Z,63.69
2018-09-19T00:30:25.870Z,64.31
2018-09-19T00:31:25.916Z,64.01
2018-09-19T00:32:25.924Z,64.21
2018-09-19T00:33:25.982Z,64.21
2018-09-19T00:34:25.975Z,64.01
2018-09-19T00:35:26.070Z,63.98
2018-09-19T00:36:26.022Z,64.47
2018-09-19T00:37:26.059Z,64.47
2018-09-19T00:38:26.095Z,63.92
2018-09-19T00:39:26.099Z,63.89
2018-09-19T00:40:26.128Z,63.69
2018-09-19T00:41:26.159Z,63.98
2018-09-19T00:42:26.181Z,64.37
2018-09-19T00:43:26.221Z,64.18
2018-09-19T00:44:26.233Z,64.85
2018-09-19T00:45:26.250Z,64.95
2018-09-19T00:46:26.361Z,64.85
2018-09-19T00:47:26.310Z,64.37
2018-09-19T00:48:26.325Z,64.27
2018-09-19T00:49:26.351Z,63.89
2018-09-19T00:50:26.377Z,64.37
2018-09-19T00:51:26.416Z,64.18
2018-09-19T00:52:26.429Z,63.92
2018-09-19T00:53:26.479Z,63.79
2018-09-19T00:54:26.481Z,63.89
2018-09-19T00:55:26.503Z,64.18
2018-09-19T00:56:26.533Z,64.08
2018-09-19T00:57:26.640Z,63.89
2018-09-19T00:58:26.626Z,64.56
2018-09-19T00:59:26.663Z,64.27
2018-09-19T01:00:26.648Z,64.27
2018-09-19T01:01:26.652Z,64.37
2018-09-19T01:02:26.723Z,64.27
2018-09-19T01:03:26.703Z,64.47
2018-09-19T01:04:26.728Z,64.27
2018-09-19T01:05:26.748Z,64.95
2018-09-19T01:06:26.795Z,64.47
2018-09-19T01:07:26.804Z,63.98
2018-09-19T01:08:26.824Z,63.89
2018-09-19T01:09:26.859Z,64.37
2018-09-19T01:10:26.875Z,63.79
2018-09-19T01:11:26.902Z,63.89
2018-09-19T01:12:26.925Z,63.98
2018-09-19T01:13:26.952Z,64.92
2018-09-19T01:14:26.970Z,64.43
2018-09-19T01:15:27.012Z,64.53
2018-09-19T01:16:27.022Z,64.85
2018-09-19T01:17:27.054Z,64.85
2018-09-19T01:18:27.074Z,64.08
2018-09-19T01:19:27.096Z,65.14
2018-09-19T01:20:27.117Z,64.95
2018-09-19T01:21:27.219Z,64.85
2018-09-19T01:22:27.176Z,65.05
2018-09-19T01:23:27.211Z,64.92
2018-09-19T01:24:27.218Z,65.20
2018-09-19T01:25:27.260Z,65.92
2018-09-19T01:26:27.277Z,65.34
2018-09-19T01:27:27.298Z,65.63
2018-09-19T01:28:27.321Z,65.98
2018-09-19T01:29:27.343Z,65.69
2018-09-19T01:30:27.373Z,65.50
2018-09-19T01:31:27.389Z,65.30
2018-09-19T01:32:27.439Z,65.01
2018-09-19T01:33:27.451Z,65.43
2018-09-19T01:34:27.473Z,65.43
2018-09-19T01:35:27.496Z,65.53
2018-09-19T01:36:27.523Z,65.14
2018-09-19T01:37:27.556Z,65.63
2018-09-19T01:38:27.575Z,65.43
2018-09-19T01:39:27.594Z,65.50
2018-09-19T01:40:27.617Z,65.92
2018-09-19T01:41:27.647Z,66.11
2018-09-19T01:43:27.705Z,66.17
2018-09-19T01:44:27.727Z,65.98
2018-09-19T01:45:27.743Z,66.46
2018-09-19T01:46:27.845Z,66.08
2018-09-19T01:47:27.796Z,66.40
2018-09-19T01:48:27.811Z,66.17
2018-09-19T01:49:27.843Z,66.01
2018-09-19T01:50:27.868Z,65.88
2018-09-19T01:51:27.896Z,66.08
2018-09-19T01:52:27.923Z,65.98
2018-09-19T01:53:28.623Z,66.46
2018-09-19T01:54:27.966Z,66.17
2018-09-19T01:55:27.999Z,66.46
2018-09-19T01:56:28.021Z,66.46
2018-09-19T01:57:28.051Z,66.08
2018-09-19T01:58:28.072Z,66.72
2018-09-19T01:59:28.105Z,66.75
2018-09-19T02:00:28.112Z,66.36
2018-09-19T02:01:28.141Z,66.72
2018-09-19T02:02:28.166Z,66.82
2018-09-19T02:03:28.184Z,66.66
2018-09-19T02:04:28.209Z,66.66
2018-09-19T02:05:28.243Z,66.08
2018-09-19T02:06:28.269Z,66.27
2018-09-19T02:07:28.345Z,66.85
2018-09-19T02:08:28.307Z,66.91
2018-09-19T02:09:28.335Z,66.85
2018-09-19T02:10:28.362Z,66.94
2018-09-19T02:11:28.381Z,67.24
2018-09-19T02:12:28.413Z,67.78
2018-09-19T02:13:28.428Z,68.26
2018-09-19T02:14:28.457Z,68.17
2018-09-19T02:15:28.482Z,68.55
2018-09-19T02:16:28.537Z,68.46
2018-09-19T02:17:28.529Z,68.17
2018-09-19T02:18:28.558Z,67.97
2018-09-19T02:19:28.580Z,68.81
2018-09-19T02:20:28.617Z,68.65
2018-09-19T02:21:28.623Z,68.17
2018-09-19T02:22:28.671Z,68.26
2018-09-19T02:23:28.677Z,68.23
2018-09-19T02:24:28.701Z,68.75
2018-09-19T02:25:28.725Z,68.33
2018-09-19T02:26:28.754Z,68.07
2018-09-19T02:27:28.787Z,67.97
2018-09-19T02:28:28.818Z,67.78
2018-09-19T02:29:28.824Z,67.49
2018-09-19T02:30:28.855Z,67.88
2018-09-19T02:31:28.871Z,69.20
2018-09-19T02:32:28.894Z,69.39
2018-09-19T02:33:28.923Z,68.91
2018-09-19T02:34:28.943Z,68.52
2018-09-19T02:35:28.997Z,67.88
2018-09-19T02:36:29.000Z,68.07
2018-09-19T02:37:29.032Z,67.97
2018-09-19T02:38:29.034Z,67.88
2018-09-19T02:39:29.065Z,67.78
2018-09-19T02:40:29.094Z,67.88
2018-09-19T02:41:29.124Z,67.78
2018-09-19T02:42:29.135Z,67.94
2018-09-19T02:43:29.156Z,68.13
2018-09-19T02:44:29.195Z,69.29
2018-09-19T02:45:29.243Z,69.20
2018-09-19T02:46:29.255Z,68.71
2018-09-19T02:47:29.256Z,68.97
2018-09-19T02:48:29.293Z,68.52
2018-09-19T02:49:29.307Z,68.13
2018-09-19T02:50:29.344Z,68.04
2018-09-19T02:51:29.360Z,67.55
2018-09-19T02:52:29.408Z,67.59
2018-09-19T02:53:29.410Z,67.20
2018-09-19T02:54:29.442Z,67.20
2018-09-19T02:55:29.466Z,67.40
2018-09-19T02:57:29.511Z,67.46
2018-09-19T02:58:29.529Z,67.85
2018-09-19T02:59:29.551Z,67.75
2018-09-19T03:00:29.577Z,67.85
2018-09-19T03:01:29.596Z,67.55
2018-09-19T03:02:29.709Z,67.17
2018-09-19T03:03:29.650Z,67.36
2018-09-19T03:04:29.672Z,66.59
2018-09-19T03:05:29.719Z,66.88
2018-09-19T03:06:29.769Z,66.88
2018-09-19T03:07:30.659Z,66.72
2018-09-19T03:08:29.778Z,66.43
2018-09-19T03:09:29.797Z,66.43
2018-09-19T03:10:29.815Z,66.78
2018-09-19T03:11:29.845Z,66.91
2018-09-19T03:12:29.866Z,66.43
2018-09-19T03:13:29.883Z,66.88
2018-09-19T03:14:29.925Z,66.78
2018-09-19T03:15:29.942Z,66.88
2018-09-19T03:16:29.981Z,66.88
2018-09-19T03:17:30.077Z,66.78
2018-09-19T03:18:30.011Z,66.66
2018-09-19T03:19:30.037Z,66.59
2018-09-19T03:20:30.070Z,66.30
2018-09-19T03:21:30.091Z,66.11
2018-09-19T03:22:30.104Z,65.43
2018-09-19T03:23:30.130Z,66.11
2018-09-19T03:24:30.153Z,66.11
2018-09-19T03:25:30.173Z,65.91
2018-09-19T03:26:30.213Z,66.01
2018-09-19T03:27:30.234Z,66.01
2018-09-19T03:28:30.249Z,65.43
2018-09-19T03:29:30.281Z,65.56
2018-09-19T03:30:30.305Z,65.66
2018-09-19T03:31:30.320Z,65.27
2018-09-19T03:32:30.354Z,64.95
2018-09-19T03:33:30.370Z,65.66
2018-09-19T03:34:30.395Z,65.27
2018-09-19T03:35:30.445Z,65.27
2018-09-19T03:36:30.447Z,65.24
2018-09-19T03:37:30.470Z,65.14
2018-09-19T03:38:30.520Z,65.56
2018-09-19T03:39:30.523Z,65.14
2018-09-19T03:40:30.556Z,65.24
2018-09-19T03:41:30.570Z,65.53
2018-09-19T03:42:30.591Z,65.34
2018-09-19T03:43:30.620Z,65.53
2018-09-19T03:44:30.636Z,65.63
2018-09-19T03:45:30.662Z,65.24
2018-09-19T03:46:30.681Z,64.86
2018-09-19T03:47:30.719Z,64.50
2018-09-19T03:48:30.823Z,64.89
2018-09-19T03:49:30.761Z,65.14
2018-09-19T03:50:30.784Z,65.14
2018-09-19T03:51:30.800Z,64.98
2018-09-19T03:52:30.837Z,65.17
2018-09-19T03:53:30.887Z,64.50
2018-09-19T03:54:30.873Z,64.79
2018-09-19T03:55:30.902Z,64.79
2018-09-19T03:56:30.929Z,64.50
2018-09-19T03:57:30.954Z,64.89
2018-09-19T03:58:30.985Z,64.98
2018-09-19T03:59:31.029Z,64.50
2018-09-19T04:00:31.034Z,64.40
2018-09-19T04:01:31.055Z,64.89
2018-09-19T04:02:31.076Z,64.59
2018-09-19T04:03:31.100Z,64.01
2018-09-19T04:04:31.118Z,65.08
2018-09-19T04:05:31.152Z,64.40
2018-09-19T04:06:31.173Z,64.56
2018-09-19T04:07:31.190Z,65.05
2018-09-19T04:08:31.217Z,65.24
2018-09-19T04:09:32.200Z,65.63
2018-09-19T04:10:31.266Z,65.53
2018-09-19T04:11:31.344Z,65.34
2018-09-19T04:12:31.328Z,65.37
2018-09-19T04:13:31.340Z,64.76
2018-09-19T04:14:31.445Z,65.24
2018-09-19T04:15:31.406Z,65.43
2018-09-19T04:16:31.405Z,65.24
2018-09-19T04:17:31.429Z,65.66
2018-09-19T04:18:31.462Z,65.72
2018-09-19T04:19:31.484Z,65.82
2018-09-19T04:20:31.516Z,65.47
2018-09-19T04:21:31.530Z,65.37
2018-09-19T04:22:31.566Z,65.17
2018-09-19T04:23:31.585Z,65.27
2018-09-19T04:24:31.614Z,65.17
2018-09-19T04:25:31.628Z,65.27
2018-09-19T04:26:31.672Z,65.72
2018-09-19T04:27:31.675Z,65.56
2018-09-19T04:28:31.720Z,66.11
2018-09-19T04:29:31.722Z,66.20
2018-09-19T04:30:31.751Z,66.01
2018-09-19T04:31:31.776Z,65.53
2018-09-19T04:32:31.820Z,65.56
2018-09-19T04:33:31.820Z,65.43
2018-09-19T04:34:31.864Z,65.34
2018-09-19T04:35:31.868Z,65.56
2018-09-19T04:36:31.935Z,65.66
2018-09-19T04:37:31.942Z,65.47
2018-09-19T04:38:31.959Z,65.24
2018-09-19T04:39:31.963Z,65.47
2018-09-19T04:40:31.989Z,65.53
2018-09-19T04:41:32.012Z,65.34
2018-09-19T04:42:32.044Z,65.43
2018-09-19T04:43:32.059Z,65.53
2018-09-19T04:44:32.086Z,65.43
2018-09-19T04:45:32.112Z,65.56
2018-09-19T04:46:32.137Z,66.20
2018-09-19T04:47:32.161Z,65.53
2018-09-19T04:48:32.177Z,66.20
2018-09-19T04:49:32.213Z,66.11
2018-09-19T04:50:32.249Z,66.20
2018-09-19T04:51:32.366Z,65.63
2018-09-19T04:52:32.279Z,66.20
2018-09-19T04:53:32.302Z,66.30
2018-09-19T04:54:32.330Z,66.69
2018-09-19T04:55:32.353Z,66.40
2018-09-19T04:56:32.391Z,66.11
2018-09-19T04:57:32.399Z,66.40
2018-09-19T04:58:32.432Z,66.30
2018-09-19T04:59:32.442Z,66.30
2018-09-19T05:00:32.469Z,66.01
2018-09-19T05:01:32.495Z,66.11
2018-09-19T05:02:32.514Z,66.20
2018-09-19T05:03:32.591Z,66.30
2018-09-19T05:04:32.562Z,66.59
2018-09-19T05:05:32.601Z,66.20
2018-09-19T05:06:32.615Z,66.40
2018-09-19T05:07:32.637Z,66.49
2018-09-19T05:08:32.660Z,66.40
2018-09-19T05:09:32.829Z,66.30
2018-09-19T05:10:32.723Z,66.40
2018-09-19T05:11:32.819Z,66.20
2018-09-19T05:12:32.758Z,66.17
2018-09-19T05:13:32.799Z,66.11
2018-09-19T05:14:32.813Z,66.20
2018-09-19T05:15:32.823Z,66.20
2018-09-19T05:16:32.848Z,66.20
2018-09-19T05:17:32.875Z,66.30
2018-09-19T05:18:33.724Z,66.40
2018-09-19T05:19:32.940Z,66.30
2018-09-19T05:20:32.954Z,66.01
2018-09-19T05:21:32.969Z,66.46
2018-09-19T05:22:33.051Z,66.20
2018-09-19T05:23:33.056Z,67.04
2018-09-19T05:24:33.048Z,67.23
2018-09-19T05:25:33.066Z,67.04
2018-09-19T05:26:33.089Z,66.66
2018-09-19T05:27:33.113Z,67.07
2018-09-19T05:28:33.156Z,66.66
2018-09-19T05:29:33.173Z,66.69
2018-09-19T05:30:33.191Z,66.30
2018-09-19T05:31:33.262Z,66.30
2018-09-19T05:32:33.240Z,66.20
2018-09-19T05:33:33.361Z,66.85
2018-09-19T05:34:33.323Z,66.56
2018-09-19T05:35:33.315Z,66.78
2018-09-19T05:36:33.327Z,65.78
2018-09-19T05:37:33.376Z,66.08
2018-09-19T05:38:33.376Z,66.20
2018-09-19T05:39:33.406Z,66.11
2018-09-19T05:40:33.422Z,65.98
2018-09-19T05:41:33.485Z,65.82
2018-09-19T05:42:33.474Z,66.20
2018-09-19T05:43:33.500Z,66.30
2018-09-19T05:44:33.525Z,66.11
2018-09-19T05:45:33.651Z,66.49
2018-09-19T05:46:33.595Z,65.91
2018-09-19T05:47:33.672Z,66.11
2018-09-19T05:48:33.614Z,66.20
2018-09-19T05:49:33.641Z,66.17
2018-09-19T05:50:33.660Z,66.11
2018-09-19T05:51:33.684Z,66.17
2018-09-19T05:52:33.714Z,66.56
2018-09-19T05:53:33.740Z,66.85
2018-09-19T05:54:33.786Z,66.56
2018-09-19T05:55:33.784Z,66.85
2018-09-19T05:56:33.807Z,66.75
2018-09-19T05:57:33.851Z,66.75
2018-09-19T05:58:33.851Z,67.23
2018-09-19T05:59:33.932Z,67.43
2018-09-19T06:00:33.945Z,68.07
2018-09-19T06:01:33.946Z,67.62
2018-09-19T06:02:33.962Z,67.14
2018-09-19T06:03:34.048Z,66.85
2018-09-19T06:04:34.018Z,66.75
2018-09-19T06:05:34.036Z,66.75
2018-09-19T06:06:34.082Z,66.88
2018-09-19T06:07:34.159Z,67.04
2018-09-19T06:08:34.180Z,67.62
2018-09-19T06:09:34.189Z,67.91
2018-09-19T06:10:34.207Z,68.93
2018-09-19T06:11:34.162Z,69.16
2018-09-19T06:12:34.213Z,69.55
2018-09-19T06:13:34.237Z,68.59
2018-09-19T06:14:34.234Z,69.16
2018-09-19T06:15:34.263Z,69.51
2018-09-19T06:16:34.309Z,70.03
2018-09-19T06:17:34.300Z,69.64
2018-09-19T06:18:34.356Z,69.90
2018-09-19T06:19:34.378Z,69.90
2018-09-19T06:20:34.374Z,70.32
2018-09-19T06:21:34.399Z,70.13
2018-09-19T06:22:34.417Z,70.42
2018-09-19T06:23:34.589Z,70.48
2018-09-19T06:24:34.558Z,70.57
2018-09-19T06:25:34.499Z,71.06
2018-09-19T06:26:34.556Z,71.64
2018-09-19T06:27:34.558Z,71.54
2018-09-19T06:28:34.576Z,71.73
2018-09-19T06:29:34.590Z,71.92
2018-09-19T06:30:34.623Z,71.83
2018-09-19T06:31:34.675Z,71.83
2018-09-19T06:32:34.739Z,71.73
2018-09-19T06:33:34.804Z,71.25
2018-09-19T06:34:34.702Z,70.80
2018-09-19T06:35:34.727Z,71.19
2018-09-19T06:36:34.744Z,71.28
2018-09-19T06:37:34.787Z,71.38
2018-09-19T06:38:34.888Z,70.51
2018-09-19T06:39:34.818Z,70.70
2018-09-19T06:40:34.916Z,71.25
2018-09-19T06:41:34.871Z,71.06
2018-09-19T06:42:34.903Z,71.06
2018-09-19T06:43:34.952Z,70.76
2018-09-19T06:44:35.010Z,71.09
2018-09-19T06:45:35.105Z,70.51
2018-09-19T06:46:35.053Z,70.70
2018-09-19T06:47:35.035Z,70.32
2018-09-19T06:48:35.067Z,70.13
2018-09-19T06:49:35.072Z,69.84
2018-09-19T06:50:35.088Z,70.16
2018-09-19T06:51:35.110Z,70.06
2018-09-19T06:52:35.184Z,70.22
2018-09-19T06:53:35.183Z,69.93
2018-09-19T06:54:35.256Z,70.03
2018-09-19T06:55:35.244Z,70.61
2018-09-19T06:56:35.288Z,70.32
2018-09-19T06:57:35.246Z,69.93
2018-09-19T06:58:35.288Z,70.80
2018-09-19T06:59:35.326Z,70.51
2018-09-19T07:00:35.339Z,70.61
2018-09-19T07:01:35.379Z,71.28
2018-09-19T07:02:35.377Z,70.51
2018-09-19T07:03:35.407Z,70.90
2018-09-19T07:04:35.422Z,70.80
2018-09-19T07:05:35.459Z,70.42
2018-09-19T07:06:35.460Z,70.22
2018-09-19T07:07:35.491Z,70.13
2018-09-19T07:08:35.521Z,70.32
2018-09-19T07:09:35.548Z,70.13
2018-09-19T07:10:35.666Z,70.32
2018-09-19T07:11:35.596Z,70.22
2018-09-19T07:12:35.710Z,69.93
2018-09-19T07:13:35.696Z,69.87
2018-09-19T07:14:35.721Z,69.78
2018-09-19T07:15:35.706Z,69.20
2018-09-19T07:16:35.819Z,69.97
2018-09-19T07:17:35.737Z,69.39
2018-09-19T07:18:35.946Z,69.39
2018-09-19T07:19:35.794Z,69.39
2018-09-19T07:20:35.806Z,68.91
2018-09-19T07:21:35.846Z,69.39
2018-09-19T07:22:35.853Z,69.58
2018-09-19T07:23:35.895Z,69.26
2018-09-19T07:24:35.911Z,69.20
2018-09-19T07:25:35.922Z,68.43
2018-09-19T07:26:35.983Z,68.23
2018-09-19T07:27:35.984Z,68.23
2018-09-19T07:28:36.079Z,68.71
2018-09-19T07:29:36.078Z,68.39
2018-09-19T07:30:36.131Z,68.68
2018-09-19T07:31:36.070Z,68.43
2018-09-19T07:32:36.159Z,68.13
2018-09-19T07:33:36.113Z,67.75
2018-09-19T07:34:36.230Z,67.36
2018-09-19T07:35:36.180Z,67.27
2018-09-19T07:36:36.195Z,67.17
2018-09-19T07:37:36.212Z,66.78
2018-09-19T07:38:36.236Z,66.78
2018-09-19T07:39:36.268Z,67.17
2018-09-19T07:40:36.305Z,66.88
2018-09-19T07:41:36.320Z,66.78
2018-09-19T07:42:36.374Z,66.69
2018-09-19T07:43:36.388Z,66.69
2018-09-19T07:44:36.419Z,66.78
2018-09-19T07:45:36.439Z,66.49
2018-09-19T07:46:36.489Z,66.40
2018-09-19T07:47:36.473Z,66.20
2018-09-19T07:48:36.491Z,66.40
2018-09-19T07:49:36.516Z,66.30
2018-09-19T07:50:36.529Z,66.78
2018-09-19T07:51:36.555Z,66.49
2018-09-19T07:52:36.574Z,66.20
2018-09-19T07:53:36.645Z,66.24
2018-09-19T07:54:36.673Z,66.05
2018-09-19T07:55:36.657Z,66.14
2018-09-19T07:56:36.765Z,66.91
2018-09-19T07:57:36.694Z,66.43
2018-09-19T07:58:36.775Z,66.33
2018-09-19T07:59:36.789Z,66.05
2018-09-19T08:00:36.906Z,65.85
2018-09-19T08:01:36.791Z,66.24
2018-09-19T08:02:36.816Z,65.85
2018-09-19T08:03:36.895Z,66.63
2018-09-19T08:04:36.930Z,66.24
2018-09-19T08:05:36.908Z,66.14
2018-09-19T08:06:36.919Z,66.33
2018-09-19T08:07:36.946Z,66.53
2018-09-19T08:08:36.963Z,66.43
2018-09-19T08:09:36.993Z,66.24
2018-09-19T08:10:37.013Z,66.14
2018-09-19T08:11:37.040Z,66.24
2018-09-19T08:12:37.064Z,66.72
2018-09-19T08:13:37.096Z,66.14
2018-09-19T08:14:37.151Z,65.95
2018-09-19T08:15:37.272Z,66.05
2018-09-19T08:16:37.168Z,65.75
2018-09-19T08:17:37.259Z,66.24
2018-09-19T08:18:37.231Z,66.43
2018-09-19T08:19:37.307Z,66.94
2018-09-19T08:20:37.268Z,65.98
2018-09-19T08:21:37.283Z,66.27
2018-09-19T08:22:37.363Z,66.08
2018-09-19T08:23:37.326Z,65.88
2018-09-19T08:24:37.366Z,65.30
2018-09-19T08:25:37.384Z,65.11
2018-09-19T08:26:37.409Z,65.30
2018-09-19T08:27:37.439Z,65.01
2018-09-19T08:28:37.460Z,65.20
2018-09-19T08:29:37.485Z,64.53
2018-09-19T08:30:37.501Z,65.40
2018-09-19T08:31:37.540Z,65.30
2018-09-19T08:32:37.555Z,64.92
2018-09-19T08:33:37.579Z,65.20
2018-09-19T08:34:37.602Z,65.11
2018-09-19T08:35:37.626Z,65.11
2018-09-19T08:36:37.647Z,64.92
2018-09-19T08:37:37.675Z,64.34
2018-09-19T08:38:37.719Z,65.11
2018-09-19T08:39:37.794Z,64.92
2018-09-19T08:40:37.754Z,65.69
2018-09-19T08:41:37.794Z,65.34
2018-09-19T08:42:37.839Z,65.14
2018-09-19T08:43:37.834Z,65.24
2018-09-19T08:44:37.873Z,63.95
2018-09-19T08:45:37.874Z,63.98
2018-09-19T08:46:37.900Z,64.47
2018-09-19T08:47:37.927Z,64.34
2018-09-19T08:48:37.960Z,63.85
2018-09-19T08:49:37.973Z,64.18
2018-09-19T08:50:38.040Z,64.72
2018-09-19T08:51:38.021Z,64.05
2018-09-19T08:52:38.059Z,64.63
2018-09-19T08:53:38.076Z,64.92
2018-09-19T08:54:38.104Z,65.14
2018-09-19T08:55:38.122Z,64.66
2018-09-19T08:56:38.172Z,64.76
2018-09-19T08:57:38.169Z,64.37
2018-09-19T08:58:38.195Z,64.08
2018-09-19T08:59:38.233Z,64.95
2018-09-19T09:00:38.239Z,64.08
2018-09-19T09:01:38.275Z,64.37
2018-09-19T09:02:38.314Z,64.08
2018-09-19T09:03:38.320Z,63.98
2018-09-19T09:04:38.380Z,63.98
2018-09-19T09:05:38.391Z,64.08
2018-09-19T09:06:38.414Z,63.79
2018-09-19T09:07:38.422Z,63.98
2018-09-19T09:08:38.451Z,64.08
2018-09-19T09:09:38.477Z,64.37
2018-09-19T09:10:38.496Z,63.73
2018-09-19T09:11:38.524Z,64.01
2018-09-19T09:12:38.596Z,63.50
2018-09-19T09:13:38.570Z,64.11
2018-09-19T09:14:38.625Z,63.92
2018-09-19T09:15:38.630Z,64.01
2018-09-19T09:16:38.647Z,63.53
2018-09-19T09:17:38.693Z,63.73
2018-09-19T09:18:38.703Z,64.01
2018-09-19T09:19:38.727Z,64.40
2018-09-19T09:20:38.749Z,64.21
2018-09-19T09:21:38.782Z,64.89
2018-09-19T09:22:38.809Z,64.21
2018-09-19T09:23:38.838Z,64.98
2018-09-19T09:24:38.856Z,64.79
2018-09-19T09:25:38.937Z,64.69
2018-09-19T09:26:38.925Z,65.08
2018-09-19T09:27:38.944Z,64.98
2018-09-19T09:28:38.966Z,65.17
2018-09-19T09:29:38.995Z,64.79
2018-09-19T09:30:39.024Z,65.37
2018-09-19T09:31:39.055Z,64.98
2018-09-19T09:32:39.078Z,64.89
2018-09-19T09:33:39.094Z,65.01
2018-09-19T09:34:39.117Z,65.01
2018-09-19T09:35:39.148Z,64.62
2018-09-19T09:36:39.231Z,65.08
2018-09-19T09:37:39.200Z,65.30
2018-09-19T09:38:39.229Z,65.30
2018-09-19T09:39:39.249Z,64.72
2018-09-19T09:40:39.337Z,64.92
2018-09-19T09:41:39.306Z,64.82
2018-09-19T09:42:39.341Z,65.11
2018-09-19T09:43:39.422Z,65.11
2018-09-19T09:44:39.388Z,64.62
2018-09-19T09:45:39.408Z,64.92
2018-09-19T09:46:39.437Z,64.62
2018-09-19T09:47:39.458Z,64.72
2018-09-19T09:48:39.481Z,65.01
2018-09-19T09:49:39.556Z,64.62
2018-09-19T09:50:39.527Z,65.01
2018-09-19T09:51:39.557Z,65.20
2018-09-19T09:52:39.588Z,64.72
2018-09-19T09:53:39.613Z,65.20
2018-09-19T09:54:39.646Z,64.34
2018-09-19T09:55:39.662Z,63.95
2018-09-19T09:56:39.763Z,63.95
2018-09-19T09:57:39.754Z,64.04
2018-09-19T09:58:39.738Z,64.24
2018-09-19T09:59:39.770Z,64.04
2018-09-19T10:00:39.809Z,64.24
2018-09-19T10:01:39.820Z,64.34
2018-09-19T10:02:39.860Z,64.14
2018-09-19T10:03:39.878Z,63.76
2018-09-19T10:04:39.903Z,63.95
2018-09-19T10:05:39.928Z,63.95
2018-09-19T10:06:39.995Z,64.04
2018-09-19T10:07:40.004Z,63.46
2018-09-19T10:08:40.006Z,63.46
2018-09-19T10:09:40.026Z,63.27
2018-09-19T10:10:40.050Z,63.27
2018-09-19T10:11:40.075Z,63.37
2018-09-19T10:12:40.124Z,63.46
2018-09-19T10:13:40.176Z,63.08
2018-09-19T10:14:40.162Z,62.79
2018-09-19T10:15:40.186Z,62.40
2018-09-19T10:16:40.208Z,62.69
2018-09-19T10:17:40.234Z,62.30
2018-09-19T10:18:40.421Z,62.04
2018-09-19T10:19:40.313Z,61.85
2018-09-19T10:20:40.306Z,61.76
2018-09-19T10:21:40.336Z,61.82
2018-09-19T10:22:40.365Z,61.36
2018-09-19T10:23:40.387Z,61.82
2018-09-19T10:24:40.408Z,61.95
2018-09-19T10:25:40.437Z,61.95
2018-09-19T10:26:40.471Z,61.95
2018-09-19T10:27:40.498Z,61.56
2018-09-19T10:28:40.520Z,61.66
2018-09-19T10:29:40.577Z,61.95
2018-09-19T10:30:40.582Z,61.95
2018-09-19T10:31:40.591Z,60.59
2018-09-19T10:32:40.626Z,61.18
2018-09-19T10:33:40.641Z,60.69
2018-09-19T10:34:40.671Z,60.59
2018-09-19T10:35:40.696Z,60.69
2018-09-19T10:36:40.727Z,61.27
2018-09-19T10:37:40.750Z,61.08
2018-09-19T10:38:40.783Z,60.98
2018-09-19T10:39:40.816Z,61.18
2018-09-19T10:40:40.859Z,61.18
2018-09-19T10:41:40.883Z,61.18
2018-09-19T10:42:40.944Z,60.98
2018-09-19T10:43:40.909Z,60.91
2018-09-19T10:44:40.936Z,60.82
2018-09-19T10:45:40.967Z,59.94
2018-09-19T10:46:40.992Z,60.04
2018-09-19T10:47:41.016Z,59.91
2018-09-19T10:48:41.046Z,60.43
2018-09-19T10:49:41.070Z,59.94
2018-09-19T10:50:41.107Z,59.91
2018-09-19T10:51:41.133Z,60.40
2018-09-19T10:52:41.144Z,59.82
2018-09-19T10:53:41.194Z,59.91
2018-09-19T10:54:41.895Z,60.33
2018-09-19T10:55:41.234Z,60.33
2018-09-19T10:56:41.282Z,59.94
2018-09-19T10:57:41.332Z,59.75
2018-09-19T10:58:41.300Z,60.04
2018-09-19T10:59:41.333Z,59.56
2018-09-19T11:00:41.355Z,60.04
2018-09-19T11:01:41.414Z,59.27
2018-09-19T11:02:41.414Z,58.49
2018-09-19T11:03:41.445Z,58.98
2018-09-19T11:04:41.460Z,58.69
2018-09-19T11:05:41.488Z,58.91
2018-09-19T11:06:41.526Z,58.88
2018-09-19T11:07:41.545Z,59.07
2018-09-19T11:08:41.568Z,58.98
2018-09-19T11:09:41.604Z,58.98
2018-09-19T11:10:41.621Z,59.36
2018-09-19T11:11:41.649Z,59.27
2018-09-19T11:12:41.684Z,59.66
2018-09-19T11:13:41.740Z,59.00
2018-09-19T11:14:41.729Z,59.20
2018-09-19T11:15:41.757Z,58.72
2018-09-19T11:16:41.789Z,57.65
2018-09-19T11:17:41.806Z,56.71
2018-09-19T11:18:41.843Z,56.61
2018-09-19T11:19:41.871Z,56.03
2018-09-19T11:20:41.890Z,56.23
2018-09-19T11:21:41.918Z,56.61
2018-09-19T11:22:41.945Z,56.81
2018-09-19T11:23:41.968Z,57.19
2018-09-19T11:24:42.001Z,57.00
2018-09-19T11:25:42.035Z,56.54
2018-09-19T11:26:42.052Z,57.03
2018-09-19T11:27:42.094Z,57.03
2018-09-19T11:28:42.911Z,56.74
2018-09-19T11:29:42.138Z,56.64
2018-09-19T11:30:42.202Z,56.15
2018-09-19T11:31:42.193Z,56.25
2018-09-19T11:32:42.217Z,56.05
2018-09-19T11:33:42.283Z,56.54
2018-09-19T11:34:42.274Z,55.77
2018-09-19T11:36:42.323Z,56.25
2018-09-19T11:37:42.353Z,55.99
2018-09-19T11:38:42.385Z,55.77
2018-09-19T11:39:42.424Z,55.60
2018-09-19T11:40:42.435Z,55.11
2018-09-19T11:41:42.474Z,55.89
2018-09-19T11:42:42.493Z,54.92
2018-09-19T11:43:42.521Z,55.21
2018-09-19T11:44:42.549Z,54.92
2018-09-19T11:45:42.585Z,55.02
2018-09-19T11:46:42.740Z,55.31
2018-09-19T11:47:42.639Z,54.99
2018-09-19T11:48:42.667Z,55.47
2018-09-19T11:49:42.696Z,55.57
2018-09-19T11:50:42.727Z,56.54
2018-09-19T11:51:42.754Z,55.87
2018-09-19T11:52:42.787Z,55.67
2018-09-19T11:53:42.811Z,54.80
2018-09-19T11:54:42.835Z,54.70
2018-09-19T11:55:42.859Z,54.31
2018-09-19T11:56:42.893Z,54.60
2018-09-19T11:57:42.923Z,54.60
2018-09-19T11:58:42.961Z,55.18
2018-09-19T11:59:42.968Z,55.28
2018-09-19T12:00:43.000Z,55.28
2018-09-19T12:01:43.030Z,54.99
2018-09-19T12:02:43.058Z,55.67
2018-09-19T12:03:43.083Z,54.53
2018-09-19T12:04:43.107Z,54.53
2018-09-19T12:05:43.156Z,54.72
2018-09-19T12:06:43.172Z,53.85
2018-09-19T12:07:43.191Z,53.49
2018-09-19T12:08:43.219Z,53.49
2018-09-19T12:09:43.254Z,54.34
2018-09-19T12:10:43.308Z,54.72
2018-09-19T12:11:43.315Z,54.44
2018-09-19T12:12:43.340Z,54.75
2018-09-19T12:13:43.360Z,54.07
2018-09-19T12:14:43.395Z,54.36
2018-09-19T12:15:43.416Z,53.75
2018-09-19T12:16:43.442Z,53.95
2018-09-19T12:17:43.481Z,54.53
2018-09-19T12:18:43.502Z,54.36
2018-09-19T12:19:43.525Z,54.92
2018-09-19T12:20:43.561Z,54.85
2018-09-19T12:21:43.584Z,54.72
2018-09-19T12:22:43.612Z,55.11
2018-09-19T12:23:43.639Z,55.02
2018-09-19T12:24:43.668Z,54.75
2018-09-19T12:25:43.700Z,53.59
2018-09-19T12:26:43.796Z,53.47
2018-09-19T12:27:43.757Z,54.07
2018-09-19T12:28:43.924Z,54.07
2018-09-19T12:29:43.828Z,53.69
2018-09-19T12:30:43.853Z,53.88
2018-09-19T12:31:43.878Z,53.69
2018-09-19T12:32:43.901Z,53.20
2018-09-19T12:33:43.929Z,53.49
2018-09-19T12:34:43.949Z,53.39
2018-09-19T12:35:43.980Z,52.33
2018-09-19T12:36:44.006Z,52.78
2018-09-19T12:37:44.033Z,53.47
2018-09-19T12:38:44.066Z,52.40
2018-09-19T12:39:44.209Z,53.00
2018-09-19T12:40:44.114Z,53.30
2018-09-19T12:41:44.142Z,52.72
2018-09-19T12:42:44.176Z,52.40
2018-09-19T12:43:44.196Z,52.50
2018-09-19T12:44:44.226Z,52.59
2018-09-19T12:45:44.256Z,52.40
2018-09-19T12:46:44.285Z,52.72
2018-09-19T12:47:44.311Z,52.23
2018-09-19T12:48:44.347Z,51.93
2018-09-19T12:49:44.377Z,52.23
2018-09-19T12:50:44.958Z,52.13
2018-09-19T12:51:44.431Z,52.03
2018-09-19T12:52:44.467Z,52.33
2018-09-19T12:53:44.480Z,52.33
2018-09-19T12:54:44.509Z,52.23
2018-09-19T12:55:44.533Z,52.03